createdAt,value
2019-05-16T00:01:03.036Z,18.93
2019-05-16T00:03:33.336Z,18.98
2019-05-16T00:06:03.578Z,21.17
2019-05-16T00:08:33.784Z,20.30
2019-05-16T00:11:04.036Z,19.40
2019-05-16T00:13:34.389Z,20.25
2019-05-16T00:16:04.815Z,20.77
2019-05-16T00:18:35.302Z,21.02
2019-05-16T00:21:05.745Z,21.23
2019-05-16T00:23:37.714Z,20.55
2019-05-16T00:26:07.864Z,21.23
2019-05-16T00:28:38.208Z,21.70
2019-05-16T00:31:09.485Z,20.73
2019-05-16T00:33:40.120Z,21.50
2019-05-16T00:36:10.413Z,23.65
2019-05-16T00:38:40.836Z,23.73
2019-05-16T00:41:11.149Z,20.25
2019-05-16T00:43:41.386Z,18.80
2019-05-16T00:46:13.515Z,21.12
2019-05-16T00:48:44.655Z,20.93
2019-05-16T00:51:15.242Z,20.35
2019-05-16T00:53:45.705Z,19.92
2019-05-16T00:56:18.378Z,20.07
2019-05-16T00:58:48.585Z,19.77
2019-05-16T01:01:19.349Z,20.43
2019-05-16T01:03:49.665Z,20.52
2019-05-16T01:06:22.858Z,18.40
2019-05-16T01:08:51.655Z,18.63
2019-05-16T01:11:22.100Z,20.10
2019-05-16T01:13:52.302Z,18.52
2019-05-16T01:16:22.759Z,20.05
2019-05-16T01:18:52.922Z,19.05
2019-05-16T01:21:23.190Z,18.35
2019-05-16T01:23:53.622Z,18.90
2019-05-16T01:26:23.850Z,17.80
2019-05-16T01:28:57.615Z,19.57
2019-05-16T01:31:27.989Z,18.55
2019-05-16T01:33:58.632Z,20.27
2019-05-16T01:36:36.731Z,20.08
2019-05-16T01:39:01.615Z,30.23
2019-05-16T01:41:32.122Z,19.27
2019-05-16T01:44:02.454Z,20.45
2019-05-16T01:46:34.479Z,18.60
2019-05-16T01:49:04.690Z,17.87
2019-05-16T01:51:35.028Z,18.63
2019-05-16T01:54:05.870Z,21.65
2019-05-16T01:56:38.556Z,19.02
2019-05-16T01:59:08.900Z,17.65
2019-05-16T02:01:39.624Z,19.13
2019-05-16T02:04:12.209Z,19.42
2019-05-16T02:06:51.638Z,17.85
2019-05-16T02:09:13.681Z,20.50
2019-05-16T02:11:48.143Z,18.73
2019-05-16T02:14:18.621Z,18.12
2019-05-16T02:16:48.994Z,17.40
2019-05-16T02:19:19.218Z,18.10
2019-05-16T02:21:50.676Z,18.10
2019-05-16T02:24:20.974Z,17.50
2019-05-16T02:26:52.503Z,18.90
2019-05-16T02:29:22.963Z,18.35
2019-05-16T02:31:53.494Z,21.10
2019-05-16T02:34:23.665Z,18.17
2019-05-16T02:37:13.630Z,18.23
2019-05-16T02:39:25.632Z,18.65
2019-05-16T02:41:55.979Z,18.73
2019-05-16T02:45:17.145Z,18.93
2019-05-16T02:47:51.103Z,18.70
2019-05-16T02:50:22.321Z,19.75
2019-05-16T02:52:52.083Z,19.15
2019-05-16T02:55:22.347Z,17.77
2019-05-16T02:57:52.572Z,19.42
2019-05-16T03:00:25.628Z,18.82
2019-05-16T03:02:56.035Z,17.30
2019-05-16T03:05:27.002Z,18.62
2019-05-16T03:08:01.031Z,17.62
2019-05-16T03:10:31.188Z,17.37
2019-05-16T03:13:04.783Z,18.52
2019-05-16T03:15:35.337Z,18.42
2019-05-16T03:18:05.648Z,17.60
2019-05-16T03:20:35.911Z,20.05
2019-05-16T03:23:06.350Z,18.40
2019-05-16T03:25:36.857Z,18.40
2019-05-16T03:28:07.134Z,19.87
2019-05-16T03:30:44.881Z,29.23
2019-05-16T03:33:18.971Z,18.67
2019-05-16T03:35:44.680Z,17.80
2019-05-16T03:38:13.528Z,16.57
2019-05-16T03:40:43.800Z,17.37
2019-05-16T03:43:14.318Z,18.35
2019-05-16T03:45:44.688Z,18.13
2019-05-16T03:48:14.998Z,21.73
2019-05-16T03:50:45.423Z,20.70
2019-05-16T03:53:15.675Z,21.85
2019-05-16T03:55:45.889Z,19.50
2019-05-16T03:58:16.273Z,23.03
2019-05-16T04:02:45.695Z,20.37
2019-05-16T04:05:16.896Z,23.15
2019-05-16T04:07:47.119Z,18.02
2019-05-16T04:10:17.673Z,18.75
2019-05-16T04:12:47.853Z,19.45
2019-05-16T04:15:21.191Z,22.20
2019-05-16T04:17:51.209Z,21.97
2019-05-16T04:20:21.701Z,19.50
2019-05-16T04:22:52.041Z,17.83
2019-05-16T04:25:22.454Z,17.30
2019-05-16T04:27:53.136Z,17.55
2019-05-16T04:30:23.552Z,17.50
2019-05-16T04:32:53.871Z,17.70
2019-05-16T04:35:24.179Z,18.40
2019-05-16T04:37:54.459Z,18.47
2019-05-16T04:40:24.957Z,18.12
2019-05-16T04:42:55.658Z,17.42
2019-05-16T04:45:25.902Z,18.00
2019-05-16T04:47:56.166Z,17.20
2019-05-16T04:50:31.149Z,17.17
2019-05-16T04:53:01.625Z,21.07
2019-05-16T04:55:31.802Z,16.20
2019-05-16T04:58:02.165Z,17.15
2019-05-16T05:00:32.722Z,17.02
2019-05-16T05:03:03.035Z,16.55
2019-05-16T05:05:33.559Z,18.12
2019-05-16T05:08:04.030Z,16.93
2019-05-16T05:10:34.502Z,17.90
2019-05-16T05:13:04.832Z,16.60
2019-05-16T05:15:35.632Z,17.15
2019-05-16T05:18:06.003Z,16.97
2019-05-16T05:20:36.408Z,16.87
2019-05-16T05:23:06.663Z,16.35
2019-05-16T05:25:37.169Z,17.00
2019-05-16T05:28:09.857Z,16.23
2019-05-16T05:30:40.816Z,16.50
2019-05-16T05:33:11.031Z,16.55
2019-05-16T05:35:41.194Z,16.50
2019-05-16T05:38:11.708Z,15.72
2019-05-16T05:40:42.017Z,16.60
2019-05-16T05:43:12.311Z,18.23
2019-05-16T05:45:43.060Z,15.35
2019-05-16T05:48:13.649Z,15.48
2019-05-16T05:50:43.851Z,16.60
2019-05-16T05:53:14.677Z,22.42
2019-05-16T05:55:45.055Z,16.07
2019-05-16T05:58:15.462Z,15.28
2019-05-16T06:00:45.701Z,15.03
2019-05-16T06:03:16.079Z,15.20
2019-05-16T06:05:46.523Z,14.63
2019-05-16T06:08:17.191Z,14.40
2019-05-16T06:10:47.447Z,15.38
2019-05-16T06:13:20.212Z,13.83
2019-05-16T06:15:51.154Z,14.20
2019-05-16T06:18:21.710Z,14.03
2019-05-16T06:20:52.155Z,15.00
2019-05-16T06:23:22.890Z,14.20
2019-05-16T06:25:53.132Z,14.28
2019-05-16T06:28:23.760Z,17.17
2019-05-16T06:30:54.216Z,17.20
2019-05-16T06:33:24.502Z,17.27
2019-05-16T06:35:55.062Z,16.60
2019-05-16T06:38:25.574Z,17.45
2019-05-16T06:40:55.992Z,16.30
2019-05-16T06:43:26.314Z,15.80
2019-05-16T06:45:56.551Z,15.30
2019-05-16T06:48:26.772Z,15.40
2019-05-16T06:50:57.156Z,14.35
2019-05-16T06:53:29.752Z,15.30
2019-05-16T06:56:00.163Z,17.52
2019-05-16T06:58:30.659Z,17.45
2019-05-16T07:01:03.512Z,15.80
2019-05-16T07:03:32.672Z,15.50
2019-05-16T07:06:03.145Z,15.18
2019-05-16T07:08:33.310Z,14.30
2019-05-16T07:11:03.742Z,16.30
2019-05-16T07:13:33.895Z,15.15
2019-05-16T07:16:04.453Z,15.15
2019-05-16T07:18:34.570Z,15.00
2019-05-16T07:21:06.469Z,14.75
2019-05-16T07:23:40.309Z,14.98
2019-05-16T07:26:09.856Z,14.55
2019-05-16T07:28:41.754Z,15.13
2019-05-16T07:31:17.846Z,15.27
2019-05-16T07:33:44.578Z,15.08
2019-05-16T07:36:15.991Z,15.70
2019-05-16T07:38:46.459Z,14.87
2019-05-16T07:41:16.645Z,15.47
2019-05-16T07:43:47.130Z,14.50
2019-05-16T07:46:20.606Z,13.93
2019-05-16T07:48:51.881Z,14.50
2019-05-16T07:51:21.930Z,14.13
2019-05-16T07:53:52.315Z,14.25
2019-05-16T07:56:22.517Z,13.43
2019-05-16T07:58:52.791Z,13.40
2019-05-16T08:01:23.154Z,13.13
2019-05-16T08:03:53.533Z,13.47
2019-05-16T08:06:24.041Z,12.95
2019-05-16T08:08:54.186Z,13.80
2019-05-16T08:11:24.516Z,13.32
2019-05-16T08:13:54.935Z,13.22
2019-05-16T08:16:25.039Z,14.70
2019-05-16T08:18:55.233Z,12.83
2019-05-16T08:21:27.718Z,12.68
2019-05-16T08:23:57.416Z,12.10
2019-05-16T08:26:27.585Z,11.65
2019-05-16T08:29:01.766Z,12.20
2019-05-16T08:31:31.904Z,12.53
2019-05-16T08:34:01.422Z,12.30
2019-05-16T08:36:31.768Z,12.30
2019-05-16T08:39:02.019Z,12.37
2019-05-16T08:41:32.304Z,12.37
2019-05-16T08:44:02.661Z,12.00
2019-05-16T08:46:32.787Z,11.60
2019-05-16T08:49:03.611Z,12.40
2019-05-16T08:51:33.969Z,11.43
2019-05-16T08:54:04.428Z,13.60
2019-05-16T08:56:34.526Z,11.80
2019-05-16T08:59:04.974Z,13.98
2019-05-16T09:01:35.724Z,11.45
2019-05-16T09:04:06.057Z,12.35
2019-05-16T09:06:36.447Z,12.00
2019-05-16T09:09:26.462Z,12.70
2019-05-16T09:11:45.154Z,12.28
2019-05-16T09:14:17.183Z,12.23
2019-05-16T09:16:47.779Z,12.20
2019-05-16T09:19:18.400Z,11.50
2019-05-16T09:21:48.805Z,11.60
2019-05-16T09:24:19.212Z,11.70
2019-05-16T09:26:49.670Z,11.57
2019-05-16T09:29:20.000Z,11.70
2019-05-16T09:32:08.048Z,11.38
2019-05-16T09:34:22.270Z,10.98
2019-05-16T09:36:56.634Z,15.53
2019-05-16T09:39:24.249Z,12.23
2019-05-16T09:41:58.348Z,11.35
2019-05-16T09:44:27.252Z,11.03
2019-05-16T09:46:57.862Z,11.23
2019-05-16T09:49:31.051Z,11.70
2019-05-16T09:52:01.512Z,11.65
2019-05-16T09:54:32.989Z,12.70
2019-05-16T09:57:03.399Z,13.43
2019-05-16T09:59:33.694Z,13.45
2019-05-16T10:02:03.924Z,19.53
2019-05-16T10:04:36.622Z,36.38
2019-05-16T10:07:06.660Z,37.00
2019-05-16T10:09:44.703Z,27.40
2019-05-16T10:12:37.102Z,39.73
2019-05-16T10:15:08.589Z,57.60
2019-05-16T10:17:39.462Z,76.40
2019-05-16T10:20:12.007Z,77.85
2019-05-16T10:22:42.409Z,44.20
2019-05-16T10:25:12.946Z,18.30
2019-05-16T10:27:43.303Z,11.90
2019-05-16T10:30:17.398Z,9.85
2019-05-16T10:32:47.815Z,9.33
2019-05-16T10:35:18.823Z,10.50
2019-05-16T10:37:49.014Z,12.70
2019-05-16T10:40:19.790Z,7.50
2019-05-16T10:42:50.104Z,6.78
2019-05-16T10:45:20.547Z,7.30
2019-05-16T10:47:50.739Z,8.48
2019-05-16T10:50:21.273Z,9.17
2019-05-16T10:53:13.275Z,9.48
2019-05-16T10:55:23.677Z,8.90
2019-05-16T10:57:53.794Z,10.30
2019-05-16T11:00:48.992Z,8.95
2019-05-16T11:02:58.779Z,8.85
2019-05-16T11:05:33.627Z,8.33
2019-05-16T11:08:00.457Z,8.80
2019-05-16T11:10:31.411Z,7.60
2019-05-16T11:13:02.173Z,7.70
2019-05-16T11:15:32.592Z,6.95
2019-05-16T11:18:03.087Z,7.60
2019-05-16T11:20:33.521Z,7.80
2019-05-16T11:23:03.881Z,8.75
2019-05-16T11:25:36.507Z,9.05
2019-05-16T11:28:07.394Z,8.80
2019-05-16T11:30:37.959Z,8.30
2019-05-16T11:33:08.297Z,8.20
2019-05-16T11:35:38.693Z,7.30
2019-05-16T11:38:09.254Z,7.53
2019-05-16T11:40:39.724Z,8.23
2019-05-16T11:43:17.657Z,8.53
2019-05-16T11:45:41.547Z,9.33
2019-05-16T11:48:11.901Z,10.20
2019-05-16T11:50:42.105Z,9.77
2019-05-16T11:53:12.539Z,9.68
2019-05-16T11:55:51.752Z,8.90
2019-05-16T11:58:14.445Z,8.77
2019-05-16T12:00:44.643Z,8.85
2019-05-16T12:03:16.926Z,9.00
2019-05-16T12:05:48.280Z,9.03
2019-05-16T12:08:18.238Z,8.20
2019-05-16T12:10:48.595Z,8.28
2019-05-16T12:13:27.632Z,9.27
2019-05-16T12:15:50.519Z,9.43
2019-05-16T12:18:20.929Z,10.32
2019-05-16T12:20:51.612Z,8.88
2019-05-16T12:23:22.831Z,9.70
2019-05-16T12:25:53.263Z,9.20
2019-05-16T12:28:23.455Z,9.40
2019-05-16T12:30:56.190Z,9.73
2019-05-16T12:33:27.534Z,9.53
2019-05-16T12:35:57.725Z,9.77
2019-05-16T12:38:27.893Z,10.25
2019-05-16T12:40:58.283Z,10.10
2019-05-16T12:43:44.700Z,10.00
2019-05-16T12:46:00.277Z,9.70
2019-05-16T12:48:30.600Z,10.00
2019-05-16T12:51:01.062Z,10.00
2019-05-16T12:53:32.199Z,10.38
2019-05-16T12:56:02.697Z,10.08
2019-05-16T12:58:37.688Z,10.28
2019-05-16T13:01:07.467Z,11.25
2019-05-16T13:03:37.868Z,10.60
2019-05-16T13:06:08.360Z,12.10
2019-05-16T13:08:38.595Z,13.30
2019-05-16T13:11:09.373Z,13.03
2019-05-16T13:13:40.043Z,12.53
2019-05-16T13:16:10.333Z,13.10
2019-05-16T13:18:40.659Z,12.28
2019-05-16T13:21:10.913Z,12.70
2019-05-16T13:23:41.374Z,12.55
2019-05-16T13:26:11.818Z,13.10
2019-05-16T13:28:42.110Z,13.10
2019-05-16T13:31:12.438Z,13.35
2019-05-16T13:33:42.938Z,13.00
2019-05-16T13:36:13.370Z,13.30
2019-05-16T13:38:43.576Z,12.40
2019-05-16T13:41:14.100Z,12.58
2019-05-16T13:43:44.617Z,12.85
2019-05-16T13:46:17.028Z,12.75
2019-05-16T13:48:46.635Z,12.73
2019-05-16T13:51:19.091Z,12.43
2019-05-16T13:53:48.877Z,12.58
2019-05-16T13:56:19.145Z,12.58
2019-05-16T13:58:49.520Z,12.50
2019-05-16T14:01:21.995Z,12.95
2019-05-16T14:03:51.286Z,12.23
2019-05-16T14:06:21.774Z,13.05
2019-05-16T14:08:51.975Z,12.65
2019-05-16T14:11:22.222Z,12.57
2019-05-16T14:13:52.703Z,12.25
2019-05-16T14:16:23.041Z,13.30
2019-05-16T14:18:53.487Z,13.30
2019-05-16T14:21:23.806Z,12.98
2019-05-16T14:23:56.747Z,12.43
2019-05-16T14:26:25.676Z,12.75
2019-05-16T14:28:57.786Z,12.68
2019-05-16T14:31:27.509Z,12.63
2019-05-16T14:34:18.480Z,12.77
2019-05-16T14:36:48.729Z,13.15
2019-05-16T14:39:19.818Z,12.23
2019-05-16T14:41:50.114Z,12.05
2019-05-16T14:44:20.322Z,11.30
2019-05-16T14:46:50.606Z,11.45
2019-05-16T14:49:20.827Z,11.15
2019-05-16T14:51:51.060Z,11.60
2019-05-16T14:54:21.604Z,11.03
2019-05-16T14:56:51.719Z,11.57
2019-05-16T14:59:22.038Z,11.40
2019-05-16T15:01:52.488Z,11.43
2019-05-16T15:04:22.741Z,12.23
2019-05-16T15:06:53.038Z,12.53
2019-05-16T15:09:23.342Z,11.40
2019-05-16T15:11:53.802Z,12.03
2019-05-16T15:14:23.967Z,14.20
2019-05-16T15:16:54.308Z,12.65
2019-05-16T15:19:24.751Z,12.05
2019-05-16T15:21:56.943Z,12.53
2019-05-16T15:24:26.886Z,12.60
2019-05-16T15:27:01.186Z,13.00
2019-05-16T15:29:29.015Z,11.90
2019-05-16T15:31:59.252Z,12.47
2019-05-16T15:36:31.063Z,12.55
2019-05-16T15:39:01.498Z,12.67
2019-05-16T15:41:31.721Z,12.90
2019-05-16T15:44:02.167Z,13.85
2019-05-16T15:46:32.350Z,13.17
2019-05-16T15:49:03.172Z,13.32
2019-05-16T15:51:33.848Z,12.80
2019-05-16T15:54:06.581Z,12.88
2019-05-16T15:56:37.401Z,13.10
2019-05-16T15:59:09.862Z,13.00
2019-05-16T16:01:39.341Z,13.15
2019-05-16T16:04:09.586Z,13.70
2019-05-16T16:06:42.966Z,13.58
2019-05-16T16:09:11.606Z,13.48
2019-05-16T16:11:41.887Z,14.10
2019-05-16T16:14:12.568Z,14.50
2019-05-16T16:16:43.194Z,14.60
2019-05-16T16:19:13.543Z,14.33
2019-05-16T16:21:43.587Z,15.32
2019-05-16T16:24:14.093Z,15.43
2019-05-16T16:26:46.916Z,15.65
2019-05-16T16:29:16.913Z,15.45
2019-05-16T16:31:47.690Z,15.53
2019-05-16T16:34:18.257Z,15.27
2019-05-16T16:36:48.771Z,15.90
2019-05-16T16:39:19.061Z,15.13
2019-05-16T16:41:49.379Z,15.32
2019-05-16T16:44:19.722Z,15.32
2019-05-16T16:46:50.453Z,15.53
2019-05-16T16:49:20.715Z,16.02
2019-05-16T16:51:50.879Z,16.60
2019-05-16T16:54:21.270Z,17.42
2019-05-16T16:56:51.451Z,16.90
2019-05-16T16:59:22.113Z,16.93
2019-05-16T17:01:52.356Z,17.52
2019-05-16T17:04:22.665Z,17.20
2019-05-16T17:06:53.002Z,18.15
2019-05-16T17:09:23.057Z,18.95
2019-05-16T17:11:53.674Z,18.23
2019-05-16T17:14:25.975Z,18.90
2019-05-16T17:16:57.377Z,18.52
2019-05-16T17:19:27.383Z,18.20
2019-05-16T17:22:11.721Z,18.65
2019-05-16T17:24:29.259Z,18.27
2019-05-16T17:26:59.881Z,18.90
2019-05-16T17:29:30.235Z,19.12
2019-05-16T17:32:05.818Z,18.65
2019-05-16T17:34:32.093Z,18.00
2019-05-16T17:37:02.515Z,18.42
2019-05-16T17:39:33.132Z,18.52
2019-05-16T17:42:03.640Z,18.15
2019-05-16T17:44:36.329Z,18.13
2019-05-16T17:47:07.145Z,19.17
2019-05-16T17:49:37.693Z,17.87
2019-05-16T17:52:08.234Z,18.97
2019-05-16T17:54:38.504Z,18.87
2019-05-16T17:57:08.802Z,18.67
2019-05-16T17:59:39.020Z,18.83
2019-05-16T18:02:09.646Z,18.73
2019-05-16T18:04:41.166Z,19.05
2019-05-16T18:07:11.506Z,18.98
2019-05-16T18:09:43.141Z,19.00
2019-05-16T18:12:13.474Z,19.10
2019-05-16T18:14:46.737Z,18.77
2019-05-16T18:17:17.693Z,19.10
2019-05-16T18:19:47.470Z,19.37
2019-05-16T18:22:17.669Z,19.55
2019-05-16T18:24:47.938Z,19.90
2019-05-16T18:27:18.332Z,19.73
2019-05-16T18:29:48.675Z,19.50
2019-05-16T18:32:18.874Z,20.57
2019-05-16T18:34:49.023Z,20.90
2019-05-16T18:37:19.287Z,20.85
2019-05-16T18:39:49.401Z,20.20
2019-05-16T18:42:19.553Z,21.17
2019-05-16T18:44:49.948Z,21.37
2019-05-16T18:47:20.107Z,21.55
2019-05-16T18:49:50.452Z,23.22
2019-05-16T18:52:20.622Z,22.40
2019-05-16T18:54:50.889Z,22.98
2019-05-16T18:57:21.070Z,21.97
2019-05-16T18:59:51.521Z,21.20
2019-05-16T19:02:22.216Z,21.12
2019-05-16T19:04:52.360Z,20.57
2019-05-16T19:07:22.678Z,21.23
2019-05-16T19:09:52.913Z,21.35
2019-05-16T19:12:23.241Z,21.20
2019-05-16T19:14:53.431Z,21.27
2019-05-16T19:17:24.865Z,20.45
2019-05-16T19:19:57.016Z,21.70
2019-05-16T19:22:27.286Z,20.88
2019-05-16T19:24:57.630Z,20.45
2019-05-16T19:27:28.021Z,22.05
2019-05-16T19:29:58.201Z,21.03
2019-05-16T19:32:28.411Z,21.45
2019-05-16T19:34:58.758Z,22.20
2019-05-16T19:37:28.997Z,22.60
2019-05-16T19:39:59.189Z,21.70
2019-05-16T19:42:29.878Z,22.55
2019-05-16T19:45:00.115Z,22.22
2019-05-16T19:47:36.912Z,22.30
2019-05-16T19:50:02.485Z,23.10
2019-05-16T19:52:32.901Z,23.22
2019-05-16T19:55:03.296Z,22.55
2019-05-16T19:57:33.691Z,23.55
2019-05-16T20:00:04.295Z,24.07
2019-05-16T20:02:36.670Z,24.02
2019-05-16T20:05:08.558Z,24.27
2019-05-16T20:07:39.108Z,24.30
2019-05-16T20:10:10.367Z,24.67
2019-05-16T20:12:40.915Z,24.95
2019-05-16T20:15:12.091Z,25.27
2019-05-16T20:17:52.007Z,25.95
2019-05-16T20:20:18.210Z,24.75
2019-05-16T20:22:46.386Z,25.45
2019-05-16T20:25:17.058Z,25.10
2019-05-16T20:27:47.408Z,25.43
2019-05-16T20:30:18.323Z,25.02
2019-05-16T20:32:48.681Z,25.25
2019-05-16T20:35:19.011Z,25.08
2019-05-16T20:37:49.696Z,24.57
2019-05-16T20:40:20.214Z,24.35
2019-05-16T20:42:50.442Z,24.87
2019-05-16T20:45:20.753Z,25.62
2019-05-16T20:48:03.624Z,25.40
2019-05-16T20:50:22.970Z,24.77
2019-05-16T20:52:53.294Z,24.40
2019-05-16T20:55:23.666Z,25.30
2019-05-16T20:57:53.892Z,24.35
2019-05-16T21:00:26.738Z,25.50
2019-05-16T21:02:57.453Z,25.43
2019-05-16T21:05:27.809Z,25.50
2019-05-16T21:07:57.964Z,26.37
2019-05-16T21:10:28.408Z,26.27
2019-05-16T21:12:58.654Z,27.30
2019-05-16T21:15:28.838Z,25.95
2019-05-16T21:17:59.205Z,27.53
2019-05-16T21:20:29.959Z,26.52
2019-05-16T21:23:00.408Z,27.27
2019-05-16T21:25:30.819Z,27.02
2019-05-16T21:30:34.029Z,28.20
2019-05-16T21:33:04.449Z,27.57
2019-05-16T21:35:36.468Z,29.07
2019-05-16T21:38:08.614Z,28.38
2019-05-16T21:40:38.441Z,28.00
2019-05-16T21:43:08.866Z,27.77
2019-05-16T21:45:39.345Z,28.70
2019-05-16T21:48:10.517Z,29.02
2019-05-16T21:50:40.870Z,28.00
2019-05-16T21:53:11.139Z,27.55
2019-05-16T21:55:41.376Z,27.58
2019-05-16T21:58:11.591Z,28.15
2019-05-16T22:00:47.240Z,27.87
2019-05-16T22:03:16.916Z,28.33
2019-05-16T22:05:47.219Z,27.95
2019-05-16T22:08:17.678Z,27.35
2019-05-16T22:10:48.227Z,27.60
2019-05-16T22:13:18.448Z,27.20
2019-05-16T22:15:48.940Z,28.02
2019-05-16T22:18:19.264Z,27.60
2019-05-16T22:20:49.547Z,27.37
2019-05-16T22:23:19.850Z,26.80
2019-05-16T22:25:50.193Z,26.95
2019-05-16T22:28:20.464Z,27.20
2019-05-16T22:30:51.481Z,27.30
2019-05-16T22:33:21.603Z,25.77
2019-05-16T22:35:51.948Z,26.37
2019-05-16T22:38:22.163Z,26.47
2019-05-16T22:40:52.838Z,26.37
2019-05-16T22:43:23.436Z,26.17
2019-05-16T22:45:53.621Z,25.43
2019-05-16T22:48:26.531Z,26.90
2019-05-16T22:50:56.498Z,25.12
2019-05-16T22:53:27.286Z,25.75
2019-05-16T22:55:57.595Z,26.25
2019-05-16T22:58:28.139Z,27.45
2019-05-16T23:00:58.385Z,27.63
2019-05-16T23:03:28.836Z,27.77
2019-05-16T23:05:59.220Z,27.65
2019-05-16T23:08:29.498Z,27.25
2019-05-16T23:10:59.798Z,27.35
2019-05-16T23:13:30.219Z,26.65
2019-05-16T23:16:00.669Z,27.17
2019-05-16T23:18:30.802Z,26.27
2019-05-16T23:21:01.201Z,25.90
2019-05-16T23:23:31.472Z,27.20
2019-05-16T23:26:01.830Z,26.10
2019-05-16T23:28:32.065Z,25.95
2019-05-16T23:31:02.338Z,26.65
2019-05-16T23:33:32.893Z,26.17
2019-05-16T23:36:03.403Z,26.20
2019-05-16T23:38:34.050Z,25.30
2019-05-16T23:41:06.644Z,25.90
2019-05-16T23:43:37.555Z,25.35
2019-05-16T23:46:07.760Z,25.60
2019-05-16T23:48:38.078Z,25.60
2019-05-16T23:51:08.363Z,25.05
2019-05-16T23:53:38.569Z,24.00
2019-05-16T23:56:08.807Z,23.73
2019-05-16T23:58:39.108Z,24.60
